Hunt, Texas
Current Conditions -  °F | °C
As of 4:55 PM on Monday 24 Nov 2014 (Local Time) from KERV Reporting Station
Clear Clear  
Wind Chill: 15°   Ceiling: Unl
Heat Index: 15°   Visibility: 10mi
Dew Point: -7°   Wind: 6mph
Humidity: 22%   Direction: 340°NNW
Pressure: 30.07"   Gusts: NA
Location:  30.07°N, 99.34°W
Report Text: KERV 242255Z AUTO 34005KT 10SM CLR 15/M07 A3007 RMK AO2 T01481068
Loading
Personal Weather Stations






























Interactive Weather Map New forecast layout! Learn more

10-Day Weather Forecast

Advertisements
Track Severe Weather on mobile